Time;durP1;ratioP1;P1;durP2;ratioP2;P2;SDS_P1;SDS_P2;PMS_P1;PMS_P2;Temp;Humidity;BMP_temperature;BMP_pressure;BME280_temperature;BME280_humidity;BME280_pressure;Samples;Min_cycle;Max_cycle;Signal;HPM_P1;HPM_P2
2021/07/17 00:12:09;;;;;;;46.50;20.45;;;;;;;20.53;100.00;100442.27;719648;1176;114955;-78
2021/07/17 00:27:11;;;;;;;44.95;20.55;;;;;;;20.52;100.00;100443.28;718270;1203;115880;-77
2021/07/17 00:42:13;;;;;;;41.78;20.38;;;;;;;20.22;100.00;100435.55;717807;1204;116150;-78
2021/07/17 00:57:17;;;;;;;38.43;18.98;;;;;;;20.29;100.00;100423.08;716582;1202;115511;-79
2021/07/17 01:12:20;;;;;;;23.30;13.70;;;;;;;20.35;100.00;100432.95;716882;1203;115317;-79
2021/07/17 01:27:23;;;;;;;25.90;13.03;;;;;;;20.28;100.00;100416.09;717296;1205;114525;-79
2021/07/17 01:42:25;;;;;;;18.87;10.97;;;;;;;20.28;100.00;100408.11;717282;1200;114964;-78
2021/07/17 01:57:27;;;;;;;33.38;12.18;;;;;;;20.44;100.00;100410.47;716769;1200;115825;-77
2021/07/17 02:12:29;;;;;;;22.05;12.73;;;;;;;20.59;100.00;100393.52;717945;1183;114444;-77
2021/07/17 02:27:32;;;;;;;24.55;15.63;;;;;;;20.39;100.00;100399.58;716818;1205;114544;-78
2021/07/17 02:42:35;;;;;;;28.50;11.93;;;;;;;20.58;100.00;100386.54;716800;1202;114639;-77
2021/07/17 02:57:37;;;;;;;24.03;12.40;;;;;;;20.78;100.00;100381.31;716618;1202;115325;-77
2021/07/17 03:12:39;;;;;;;32.63;13.83;;;;;;;20.97;100.00;100398.41;716151;1205;115277;-78
2021/07/17 03:27:42;;;;;;;27.83;14.25;;;;;;;21.37;100.00;100384.31;715687;1202;115841;-78
2021/07/17 03:42:44;;;;;;;26.73;12.80;;;;;;;21.36;100.00;100404.81;715643;1179;114914;-77
2021/07/17 03:57:46;;;;;;;24.60;12.68;;;;;;;21.58;100.00;100418.02;715164;1203;115051;-78
2021/07/17 04:12:48;;;;;;;20.93;10.80;;;;;;;21.76;100.00;100404.88;715817;1202;115373;-77
2021/07/17 04:27:50;;;;;;;23.20;12.43;;;;;;;21.89;100.00;100408.55;715798;1203;116088;-78
2021/07/17 04:42:52;;;;;;;22.90;14.08;;;;;;;22.05;100.00;100421.48;715370;1202;114532;-77
2021/07/17 04:57:54;;;;;;;26.53;12.05;;;;;;;22.22;100.00;100421.84;715579;1200;114916;-79
2021/07/17 05:12:57;;;;;;;25.18;13.08;;;;;;;22.54;100.00;100438.05;715594;1200;114520;-79
2021/07/17 05:27:59;;;;;;;18.48;10.90;;;;;;;22.75;100.00;100434.27;715462;1202;115074;-79
2021/07/17 05:43:02;;;;;;;18.50;10.77;;;;;;;23.17;100.00;100446.44;715343;1202;115337;-78
2021/07/17 05:58:04;;;;;;;16.60;10.53;;;;;;;23.86;100.00;100446.55;715684;1200;115079;-79
2021/07/17 06:13:07;;;;;;;20.45;11.73;;;;;;;24.65;100.00;100452.20;715374;1206;115609;-79
2021/07/17 06:28:09;;;;;;;17.20;11.30;;;;;;;24.97;100.00;100459.23;715378;1202;114700;-78
2021/07/17 06:43:11;;;;;;;19.88;12.25;;;;;;;25.28;100.00;100471.62;715561;1201;115194;-78
2021/07/17 06:58:13;;;;;;;18.23;12.58;;;;;;;25.46;100.00;100478.83;715977;1200;115133;-77
2021/07/17 07:13:17;;;;;;;20.15;13.33;;;;;;;25.47;100.00;100487.70;715665;1202;114672;-77
2021/07/17 07:28:20;;;;;;;16.80;12.80;;;;;;;26.14;100.00;100492.03;715441;1177;115126;-77
2021/07/17 07:43:22;;;;;;;16.20;12.68;;;;;;;26.44;100.00;100481.14;715839;1202;114366;-78
2021/07/17 07:58:24;;;;;;;15.40;11.57;;;;;;;27.28;100.00;100479.03;715256;1177;114584;-80
2021/07/17 08:13:26;;;;;;;12.68;10.35;;;;;;;27.82;100.00;100484.01;714230;1204;114520;-75
2021/07/17 08:28:29;;;;;;;11.45;9.60;;;;;;;29.42;100.00;100481.50;714153;1206;114333;-75
2021/07/17 08:43:31;;;;;;;15.40;9.95;;;;;;;29.31;100.00;100483.30;714075;1200;114031;-75
2021/07/17 08:58:33;;;;;;;12.30;8.97;;;;;;;28.97;100.00;100485.31;715634;1177;114157;-74
2021/07/17 09:13:36;;;;;;;13.00;9.18;;;;;;;30.31;100.00;100476.45;715265;1201;114130;-74
2021/07/17 09:28:39;;;;;;;11.15;7.95;;;;;;;31.52;100.00;100471.97;720198;1202;115224;-79
2021/07/17 09:43:42;;;;;;;9.27;7.90;;;;;;;32.69;100.00;100456.53;716192;1201;114889;-89
2021/07/17 09:58:46;;;;;;;11.10;7.40;;;;;;;32.02;100.00;100454.03;717620;1200;114564;-89
2021/07/17 10:13:48;;;;;;;10.95;7.95;;;;;;;32.05;100.00;100449.96;717478;1204;115567;-78
2021/07/17 10:28:53;;;;;;;7.68;6.88;;;;;;;33.28;100.00;100434.20;716309;1176;114400;-78
2021/07/17 10:43:55;;;;;;;25.85;23.25;;;;;;;33.53;96.94;100424.21;715833;1181;114403;-77
2021/07/17 10:59:12;;;;;;;7.63;6.45;;;;;;;34.12;93.16;100404.02;715300;1177;113416;-82
2021/07/17 11:14:15;;;;;;;11.38;6.08;;;;;;;33.37;92.49;100388.20;716146;1202;115522;-84
2021/07/17 11:29:17;;;;;;;10.55;6.83;;;;;;;33.63;91.14;100380.61;718628;1190;113135;-88
2021/07/17 11:44:19;;;;;;;7.00;6.05;;;;;;;34.50;88.36;100365.19;716177;1200;114356;-77
2021/07/17 11:59:21;;;;;;;9.00;6.53;;;;;;;34.59;86.39;100351.70;716162;1200;115050;-79
2021/07/17 12:14:25;;;;;;;8.90;7.13;;;;;;;35.61;84.80;100340.22;716903;1200;114164;-81
2021/07/17 12:29:28;;;;;;;9.23;6.50;;;;;;;36.11;82.05;100334.84;716336;1178;113925;-81
2021/07/17 12:44:30;;;;;;;7.00;6.17;;;;;;;33.66;82.24;100320.20;717059;1200;114262;-80
2021/07/17 12:59:36;;;;;;;9.80;6.90;;;;;;;33.98;83.51;100314.14;716800;1177;113654;-79
2021/07/17 13:14:41;;;;;;;12.63;6.58;;;;;;;34.98;82.63;100302.33;716320;1202;114597;-80
2021/07/17 13:29:48;;;;;;;9.80;6.50;;;;;;;34.60;82.82;100287.97;715821;1202;114512;-80
2021/07/17 13:45:11;;;;;;;9.53;6.35;;;;;;;35.67;80.77;100289.09;714154;1202;113843;-78
2021/07/17 14:00:16;;;;;;;20.70;15.23;;;;;;;34.91;82.71;100274.67;715480;1205;114359;-80
2021/07/17 14:15:22;;;;;;;10.03;6.55;;;;;;;33.97;83.33;100276.33;715114;1205;114515;-79
2021/07/17 14:30:25;;;;;;;7.50;6.30;;;;;;;33.49;85.12;100266.30;715127;1177;114410;-79
2021/07/17 14:45:27;;;;;;;8.98;6.55;;;;;;;34.65;82.52;100277.79;714842;1177;114217;-78
2021/07/17 15:00:29;;;;;;;6.95;6.05;;;;;;;34.66;79.88;100260.35;714413;1203;114770;-79
2021/07/17 15:15:32;;;;;;;6.60;5.73;;;;;;;34.80;80.64;100251.41;714559;1202;115156;-78
2021/07/17 15:30:34;;;;;;;11.35;7.43;;;;;;;33.44;81.69;100247.33;714984;1177;114263;-79
2021/07/17 15:45:36;;;;;;;9.23;7.53;;;;;;;32.17;85.63;100238.08;714600;1202;115568;-78
2021/07/17 16:00:40;;;;;;;8.58;7.15;;;;;;;32.32;87.01;100215.45;714386;1202;114427;-78
2021/07/17 16:15:42;;;;;;;8.43;7.38;;;;;;;31.93;88.06;100206.19;715500;1200;115308;-79
2021/07/17 16:30:46;;;;;;;16.05;10.40;;;;;;;31.50;89.05;100231.05;715245;1202;114182;-78
2021/07/17 16:45:48;;;;;;;12.45;9.00;;;;;;;31.34;90.93;100238.41;715432;1200;114296;-78
2021/07/17 17:00:50;;;;;;;9.95;8.00;;;;;;;30.36;92.24;100241.11;714656;1205;116367;-79
2021/07/17 17:15:54;;;;;;;13.88;8.88;;;;;;;29.26;94.40;100242.87;714524;1176;113961;-78
2021/07/17 17:30:57;;;;;;;10.53;8.68;;;;;;;28.51;97.34;100240.89;714151;1177;114705;-78
2021/07/17 17:45:59;;;;;;;12.70;9.05;;;;;;;28.01;100.00;100250.06;714577;1203;114706;-73
2021/07/17 18:01:02;;;;;;;17.33;10.77;;;;;;;27.64;100.00;100240.73;714386;1206;114465;-75
2021/07/17 18:16:04;;;;;;;10.83;9.35;;;;;;;27.22;100.00;100266.23;714361;1200;114651;-74
2021/07/17 18:31:07;;;;;;;13.57;10.47;;;;;;;26.88;100.00;100289.66;714203;1202;114600;-74
2021/07/17 18:46:09;;;;;;;11.30;8.43;;;;;;;26.45;100.00;100307.16;715403;1177;114508;-75
2021/07/17 19:01:12;;;;;;;13.85;11.48;;;;;;;26.08;100.00;100317.22;715877;1202;114302;-84
2021/07/17 19:16:14;;;;;;;14.03;9.83;;;;;;;25.82;100.00;100323.09;716861;1177;114991;-83
2021/07/17 19:31:17;;;;;;;10.23;7.50;;;;;;;25.49;100.00;100321.81;715269;1187;114562;-77
2021/07/17 19:46:19;;;;;;;10.95;8.18;;;;;;;25.21;100.00;100307.19;715208;1177;114287;-75
2021/07/17 20:01:21;;;;;;;11.10;7.33;;;;;;;25.02;100.00;100291.17;715999;1202;114803;-75
2021/07/17 20:16:24;;;;;;;9.05;6.15;;;;;;;24.78;100.00;100284.92;715632;1203;114333;-75
2021/07/17 20:31:27;;;;;;;10.15;5.65;;;;;;;24.71;100.00;100311.05;716026;1177;114168;-76
2021/07/17 20:46:29;;;;;;;9.17;6.20;;;;;;;24.65;100.00;100361.02;715596;1202;115082;-74
2021/07/17 21:01:32;;;;;;;11.33;6.07;;;;;;;24.65;100.00;100361.02;715993;1177;114138;-75
2021/07/17 21:16:37;;;;;;;12.07;6.53;;;;;;;24.54;100.00;100351.85;716971;1200;115205;-76
2021/07/17 21:31:39;;;;;;;10.20;5.80;;;;;;;24.32;100.00;100356.06;715052;1202;115409;-74
2021/07/17 21:46:41;;;;;;;7.10;5.83;;;;;;;24.24;100.00;100355.33;715076;1203;114327;-76
2021/07/17 22:01:44;;;;;;;9.85;5.33;;;;;;;24.12;100.00;100342.90;714853;1201;114996;-75
2021/07/17 22:16:46;;;;;;;9.60;5.63;;;;;;;23.99;100.00;100330.46;714974;1200;114166;-75
2021/07/17 22:31:50;;;;;;;8.70;5.50;;;;;;;23.68;100.00;100322.30;714566;1203;115265;-76
2021/07/17 22:46:52;;;;;;;7.07;5.33;;;;;;;23.49;100.00;100309.92;714961;1202;114260;-76
2021/07/17 23:01:54;;;;;;;7.07;5.17;;;;;;;23.36;100.00;100311.69;714627;1202;114983;-76
2021/07/17 23:16:57;;;;;;;8.83;5.80;;;;;;;23.29;100.00;100297.53;717005;1202;114164;-76
2021/07/17 23:31:59;;;;;;;8.78;5.73;;;;;;;23.29;100.00;100292.17;714333;1202;114264;-76
2021/07/17 23:47:02;;;;;;;12.05;5.60;;;;;;;23.26;100.00;100284.59;714041;1202;114487;-76
